sensor_id;sensor_type;location;lat;lon;timestamp;temperature;humidity
66013;DHT22;52783;50.502;8.190;2023-07-31T00:01:07;16.70;99.90
66013;DHT22;52783;50.502;8.190;2023-07-31T00:03:33;16.60;99.90
66013;DHT22;52783;50.502;8.190;2023-07-31T00:05:58;16.60;99.90
66013;DHT22;52783;50.502;8.190;2023-07-31T00:08:24;16.70;99.90
66013;DHT22;52783;50.502;8.190;2023-07-31T00:10:52;16.70;99.90
66013;DHT22;52783;50.502;8.190;2023-07-31T00:13:18;16.80;99.90
66013;DHT22;52783;50.502;8.190;2023-07-31T00:15:43;16.70;99.90
66013;DHT22;52783;50.502;8.190;2023-07-31T00:18:09;16.70;99.90
66013;DHT22;52783;50.502;8.190;2023-07-31T00:20:34;16.70;99.90
66013;DHT22;52783;50.502;8.190;2023-07-31T00:23:00;16.70;99.90
66013;DHT22;52783;50.502;8.190;2023-07-31T00:25:25;16.70;99.90
66013;DHT22;52783;50.502;8.190;2023-07-31T00:27:51;16.70;99.90
66013;DHT22;52783;50.502;8.190;2023-07-31T00:30:16;16.80;99.90
66013;DHT22;52783;50.502;8.190;2023-07-31T00:32:42;16.70;99.90
66013;DHT22;52783;50.502;8.190;2023-07-31T00:35:08;16.80;99.90
66013;DHT22;52783;50.502;8.190;2023-07-31T00:37:33;16.70;99.90
66013;DHT22;52783;50.502;8.190;2023-07-31T00:39:59;16.80;99.90
66013;DHT22;52783;50.502;8.190;2023-07-31T00:42:24;16.70;99.90
66013;DHT22;52783;50.502;8.190;2023-07-31T00:44:50;16.70;99.90
66013;DHT22;52783;50.502;8.190;2023-07-31T00:47:15;16.70;99.90
66013;DHT22;52783;50.502;8.190;2023-07-31T00:49:41;16.60;99.90
66013;DHT22;52783;50.502;8.190;2023-07-31T00:52:08;16.70;99.90
66013;DHT22;52783;50.502;8.190;2023-07-31T00:54:34;16.70;99.90
66013;DHT22;52783;50.502;8.190;2023-07-31T00:57:00;16.60;99.90
66013;DHT22;52783;50.502;8.190;2023-07-31T00:59:25;16.60;99.90
66013;DHT22;52783;50.502;8.190;2023-07-31T01:01:51;16.60;99.90
66013;DHT22;52783;50.502;8.190;2023-07-31T01:04:18;16.60;99.90
66013;DHT22;52783;50.502;8.190;2023-07-31T01:07:04;16.70;99.90
66013;DHT22;52783;50.502;8.190;2023-07-31T01:09:56;16.70;99.90
66013;DHT22;52783;50.502;8.190;2023-07-31T01:12:27;16.70;99.90
66013;DHT22;52783;50.502;8.190;2023-07-31T01:15:09;16.80;99.90
66013;DHT22;52783;50.502;8.190;2023-07-31T01:21:18;16.80;99.90
66013;DHT22;52783;50.502;8.190;2023-07-31T01:27:17;16.80;99.90
66013;DHT22;52783;50.502;8.190;2023-07-31T01:30:11;16.80;99.90
66013;DHT22;52783;50.502;8.190;2023-07-31T01:32:43;16.90;99.90
66013;DHT22;52783;50.502;8.190;2023-07-31T01:35:09;16.90;99.90
66013;DHT22;52783;50.502;8.190;2023-07-31T01:37:35;16.90;99.90
66013;DHT22;52783;50.502;8.190;2023-07-31T01:40:01;16.90;99.90
66013;DHT22;52783;50.502;8.190;2023-07-31T01:42:26;16.90;99.90
66013;DHT22;52783;50.502;8.190;2023-07-31T01:44:52;16.90;99.90
66013;DHT22;52783;50.502;8.190;2023-07-31T01:47:17;16.90;99.90
66013;DHT22;52783;50.502;8.190;2023-07-31T01:49:43;16.90;99.90
66013;DHT22;52783;50.502;8.190;2023-07-31T01:52:08;16.90;99.90
66013;DHT22;52783;50.502;8.190;2023-07-31T01:54:34;16.90;99.90
66013;DHT22;52783;50.502;8.190;2023-07-31T01:56:59;16.90;99.90
66013;DHT22;52783;50.502;8.190;2023-07-31T01:59:25;16.90;99.90
66013;DHT22;52783;50.502;8.190;2023-07-31T02:01:50;17.00;99.90
66013;DHT22;52783;50.502;8.190;2023-07-31T02:04:16;17.00;99.90
66013;DHT22;52783;50.502;8.190;2023-07-31T02:06:43;17.00;99.90
66013;DHT22;52783;50.502;8.190;2023-07-31T02:09:09;17.00;99.90
66013;DHT22;52783;50.502;8.190;2023-07-31T02:11:34;17.10;99.90
66013;DHT22;52783;50.502;8.190;2023-07-31T02:14:00;17.00;99.90
66013;DHT22;52783;50.502;8.190;2023-07-31T02:16:25;17.00;99.90
66013;DHT22;52783;50.502;8.190;2023-07-31T02:18:51;17.00;99.90
66013;DHT22;52783;50.502;8.190;2023-07-31T02:21:17;17.00;99.90
66013;DHT22;52783;50.502;8.190;2023-07-31T02:23:42;17.10;99.90
66013;DHT22;52783;50.502;8.190;2023-07-31T02:26:08;17.10;99.90
66013;DHT22;52783;50.502;8.190;2023-07-31T02:28:33;17.00;99.90
66013;DHT22;52783;50.502;8.190;2023-07-31T02:30:59;17.00;99.90
66013;DHT22;52783;50.502;8.190;2023-07-31T02:33:24;17.00;99.90
66013;DHT22;52783;50.502;8.190;2023-07-31T02:35:50;17.00;99.90
66013;DHT22;52783;50.502;8.190;2023-07-31T02:38:15;17.00;99.90
66013;DHT22;52783;50.502;8.190;2023-07-31T02:40:41;17.00;99.90
66013;DHT22;52783;50.502;8.190;2023-07-31T02:43:07;17.10;99.90
66013;DHT22;52783;50.502;8.190;2023-07-31T02:45:33;17.00;99.90
66013;DHT22;52783;50.502;8.190;2023-07-31T02:47:58;17.00;99.90
66013;DHT22;52783;50.502;8.190;2023-07-31T02:50:24;17.00;99.90
66013;DHT22;52783;50.502;8.190;2023-07-31T02:52:49;17.00;99.90
66013;DHT22;52783;50.502;8.190;2023-07-31T02:55:15;17.00;99.90
66013;DHT22;52783;50.502;8.190;2023-07-31T02:57:40;16.90;99.90
66013;DHT22;52783;50.502;8.190;2023-07-31T03:00:06;16.90;99.90
66013;DHT22;52783;50.502;8.190;2023-07-31T03:02:32;16.90;99.90
66013;DHT22;52783;50.502;8.190;2023-07-31T03:04:58;16.90;99.90
66013;DHT22;52783;50.502;8.190;2023-07-31T03:07:23;16.90;99.90
66013;DHT22;52783;50.502;8.190;2023-07-31T03:09:49;16.90;99.90
66013;DHT22;52783;50.502;8.190;2023-07-31T03:12:14;16.90;99.90
66013;DHT22;52783;50.502;8.190;2023-07-31T03:14:40;17.00;99.90
66013;DHT22;52783;50.502;8.190;2023-07-31T03:17:06;16.90;99.90
66013;DHT22;52783;50.502;8.190;2023-07-31T03:19:32;17.00;99.90
66013;DHT22;52783;50.502;8.190;2023-07-31T03:21:58;16.90;99.90
66013;DHT22;52783;50.502;8.190;2023-07-31T03:24:23;16.90;99.90
66013;DHT22;52783;50.502;8.190;2023-07-31T03:26:49;16.90;99.90
66013;DHT22;52783;50.502;8.190;2023-07-31T03:29:14;16.90;99.90
66013;DHT22;52783;50.502;8.190;2023-07-31T03:31:40;17.00;99.90
66013;DHT22;52783;50.502;8.190;2023-07-31T03:34:05;16.90;99.90
66013;DHT22;52783;50.502;8.190;2023-07-31T03:36:31;16.90;99.90
66013;DHT22;52783;50.502;8.190;2023-07-31T03:38:57;16.90;99.90
66013;DHT22;52783;50.502;8.190;2023-07-31T03:41:22;16.90;99.90
66013;DHT22;52783;50.502;8.190;2023-07-31T03:43:50;16.90;99.90
66013;DHT22;52783;50.502;8.190;2023-07-31T03:46:17;16.80;99.90
66013;DHT22;52783;50.502;8.190;2023-07-31T03:48:43;16.80;99.90
66013;DHT22;52783;50.502;8.190;2023-07-31T03:51:08;16.80;99.90
66013;DHT22;52783;50.502;8.190;2023-07-31T03:53:34;16.80;99.90
66013;DHT22;52783;50.502;8.190;2023-07-31T03:55:59;16.80;99.90
66013;DHT22;52783;50.502;8.190;2023-07-31T03:58:25;16.80;99.90
66013;DHT22;52783;50.502;8.190;2023-07-31T04:00:50;16.90;99.90
66013;DHT22;52783;50.502;8.190;2023-07-31T04:03:16;16.90;99.90
66013;DHT22;52783;50.502;8.190;2023-07-31T04:05:41;16.90;99.90
66013;DHT22;52783;50.502;8.190;2023-07-31T04:08:07;16.90;99.90
66013;DHT22;52783;50.502;8.190;2023-07-31T04:10:33;16.90;99.90
66013;DHT22;52783;50.502;8.190;2023-07-31T04:12:59;16.90;99.90
66013;DHT22;52783;50.502;8.190;2023-07-31T04:15:26;16.90;99.90
66013;DHT22;52783;50.502;8.190;2023-07-31T04:17:51;16.90;99.90
66013;DHT22;52783;50.502;8.190;2023-07-31T04:20:17;17.00;99.90
66013;DHT22;52783;50.502;8.190;2023-07-31T04:22:42;16.90;99.90
66013;DHT22;52783;50.502;8.190;2023-07-31T04:25:08;16.90;99.90
66013;DHT22;52783;50.502;8.190;2023-07-31T04:27:33;17.00;99.90
66013;DHT22;52783;50.502;8.190;2023-07-31T04:29:59;16.90;99.90
66013;DHT22;52783;50.502;8.190;2023-07-31T04:32:24;16.90;99.90
66013;DHT22;52783;50.502;8.190;2023-07-31T04:34:50;17.00;99.90
66013;DHT22;52783;50.502;8.190;2023-07-31T04:37:16;17.00;99.90
66013;DHT22;52783;50.502;8.190;2023-07-31T04:39:41;17.00;99.90
66013;DHT22;52783;50.502;8.190;2023-07-31T04:42:07;17.00;99.90
66013;DHT22;52783;50.502;8.190;2023-07-31T04:44:32;17.00;99.90
66013;DHT22;52783;50.502;8.190;2023-07-31T04:46:58;17.00;99.90
66013;DHT22;52783;50.502;8.190;2023-07-31T04:49:23;17.00;99.90
66013;DHT22;52783;50.502;8.190;2023-07-31T04:51:49;17.00;99.90
66013;DHT22;52783;50.502;8.190;2023-07-31T04:54:14;17.00;99.90
66013;DHT22;52783;50.502;8.190;2023-07-31T04:56:40;17.10;99.90
66013;DHT22;52783;50.502;8.190;2023-07-31T04:59:06;17.10;99.90
66013;DHT22;52783;50.502;8.190;2023-07-31T05:01:32;17.00;99.90
66013;DHT22;52783;50.502;8.190;2023-07-31T05:03:57;17.00;99.90
66013;DHT22;52783;50.502;8.190;2023-07-31T05:06:23;17.00;99.90
66013;DHT22;52783;50.502;8.190;2023-07-31T05:08:48;17.00;99.90
66013;DHT22;52783;50.502;8.190;2023-07-31T05:11:14;17.10;99.90
66013;DHT22;52783;50.502;8.190;2023-07-31T05:13:39;17.10;99.90
66013;DHT22;52783;50.502;8.190;2023-07-31T05:16:05;17.10;99.90
66013;DHT22;52783;50.502;8.190;2023-07-31T05:18:30;17.10;99.90
66013;DHT22;52783;50.502;8.190;2023-07-31T05:20:56;17.10;99.90
66013;DHT22;52783;50.502;8.190;2023-07-31T05:23:21;17.10;99.90
66013;DHT22;52783;50.502;8.190;2023-07-31T05:25:47;17.10;99.90
66013;DHT22;52783;50.502;8.190;2023-07-31T05:28:13;17.20;99.90
66013;DHT22;52783;50.502;8.190;2023-07-31T05:30:38;17.20;99.90
66013;DHT22;52783;50.502;8.190;2023-07-31T05:33:04;17.20;99.90
66013;DHT22;52783;50.502;8.190;2023-07-31T05:35:29;17.30;99.90
66013;DHT22;52783;50.502;8.190;2023-07-31T05:37:55;17.30;99.90
66013;DHT22;52783;50.502;8.190;2023-07-31T05:40:20;17.30;99.90
66013;DHT22;52783;50.502;8.190;2023-07-31T05:42:47;17.30;99.90
66013;DHT22;52783;50.502;8.190;2023-07-31T05:45:13;17.30;99.90
66013;DHT22;52783;50.502;8.190;2023-07-31T05:47:39;17.30;99.90
66013;DHT22;52783;50.502;8.190;2023-07-31T05:50:05;17.30;99.90
66013;DHT22;52783;50.502;8.190;2023-07-31T05:52:30;17.40;99.90
66013;DHT22;52783;50.502;8.190;2023-07-31T05:54:56;17.30;99.90
66013;DHT22;52783;50.502;8.190;2023-07-31T05:57:21;17.30;99.90
66013;DHT22;52783;50.502;8.190;2023-07-31T05:59:47;17.30;99.90
66013;DHT22;52783;50.502;8.190;2023-07-31T06:02:12;17.30;99.90
66013;DHT22;52783;50.502;8.190;2023-07-31T06:04:38;17.30;99.90
66013;DHT22;52783;50.502;8.190;2023-07-31T06:07:04;17.40;99.90
66013;DHT22;52783;50.502;8.190;2023-07-31T06:09:29;17.40;99.90
66013;DHT22;52783;50.502;8.190;2023-07-31T06:11:55;17.50;99.90
66013;DHT22;52783;50.502;8.190;2023-07-31T06:14:20;17.60;99.90
66013;DHT22;52783;50.502;8.190;2023-07-31T06:16:46;17.70;99.90
66013;DHT22;52783;50.502;8.190;2023-07-31T06:19:11;17.70;99.90
66013;DHT22;52783;50.502;8.190;2023-07-31T06:21:38;17.70;99.90
66013;DHT22;52783;50.502;8.190;2023-07-31T06:24:05;17.60;99.90
66013;DHT22;52783;50.502;8.190;2023-07-31T06:26:30;17.60;99.90
66013;DHT22;52783;50.502;8.190;2023-07-31T06:28:56;17.60;99.90
66013;DHT22;52783;50.502;8.190;2023-07-31T06:31:21;17.60;99.90
66013;DHT22;52783;50.502;8.190;2023-07-31T06:33:51;17.60;99.90
66013;DHT22;52783;50.502;8.190;2023-07-31T06:36:17;17.70;99.90
66013;DHT22;52783;50.502;8.190;2023-07-31T06:38:42;17.80;99.90
66013;DHT22;52783;50.502;8.190;2023-07-31T06:41:08;17.90;99.90
66013;DHT22;52783;50.502;8.190;2023-07-31T06:43:34;18.20;99.90
66013;DHT22;52783;50.502;8.190;2023-07-31T06:46:07;18.30;99.90
66013;DHT22;52783;50.502;8.190;2023-07-31T06:48:36;18.40;99.90
66013;DHT22;52783;50.502;8.190;2023-07-31T06:51:03;18.50;99.90
66013;DHT22;52783;50.502;8.190;2023-07-31T06:53:28;18.60;99.90
66013;DHT22;52783;50.502;8.190;2023-07-31T06:55:54;18.70;99.90
66013;DHT22;52783;50.502;8.190;2023-07-31T06:58:20;18.70;99.90
66013;DHT22;52783;50.502;8.190;2023-07-31T07:00:45;18.70;99.90
66013;DHT22;52783;50.502;8.190;2023-07-31T07:03:11;18.70;99.90
66013;DHT22;52783;50.502;8.190;2023-07-31T07:05:37;18.80;99.90
66013;DHT22;52783;50.502;8.190;2023-07-31T07:08:02;18.80;99.90
66013;DHT22;52783;50.502;8.190;2023-07-31T07:10:28;18.70;99.90
66013;DHT22;52783;50.502;8.190;2023-07-31T07:12:54;18.70;99.90
66013;DHT22;52783;50.502;8.190;2023-07-31T07:15:20;18.70;99.90
66013;DHT22;52783;50.502;8.190;2023-07-31T07:17:46;18.70;99.90
66013;DHT22;52783;50.502;8.190;2023-07-31T07:20:12;18.70;99.90
66013;DHT22;52783;50.502;8.190;2023-07-31T07:22:38;18.60;99.90
66013;DHT22;52783;50.502;8.190;2023-07-31T07:25:04;18.50;99.90
66013;DHT22;52783;50.502;8.190;2023-07-31T07:27:30;18.50;99.90
66013;DHT22;52783;50.502;8.190;2023-07-31T07:29:56;18.60;99.90
66013;DHT22;52783;50.502;8.190;2023-07-31T07:32:21;18.60;99.90
66013;DHT22;52783;50.502;8.190;2023-07-31T07:34:48;18.60;99.90
66013;DHT22;52783;50.502;8.190;2023-07-31T07:37:14;18.60;99.90
66013;DHT22;52783;50.502;8.190;2023-07-31T07:39:40;18.60;99.90
66013;DHT22;52783;50.502;8.190;2023-07-31T07:42:06;18.70;99.90
66013;DHT22;52783;50.502;8.190;2023-07-31T07:44:32;18.80;99.90
66013;DHT22;52783;50.502;8.190;2023-07-31T07:46:57;18.90;99.90
66013;DHT22;52783;50.502;8.190;2023-07-31T07:49:23;19.20;99.90
66013;DHT22;52783;50.502;8.190;2023-07-31T07:51:49;19.30;99.90
66013;DHT22;52783;50.502;8.190;2023-07-31T07:54:15;19.40;99.90
66013;DHT22;52783;50.502;8.190;2023-07-31T07:56:42;19.50;99.90
66013;DHT22;52783;50.502;8.190;2023-07-31T07:59:08;19.50;99.90
66013;DHT22;52783;50.502;8.190;2023-07-31T08:01:34;19.50;99.90
66013;DHT22;52783;50.502;8.190;2023-07-31T08:03:59;19.40;99.90
66013;DHT22;52783;50.502;8.190;2023-07-31T08:06:25;19.60;99.90
66013;DHT22;52783;50.502;8.190;2023-07-31T08:08:50;19.70;99.90
66013;DHT22;52783;50.502;8.190;2023-07-31T08:11:16;19.70;99.90
66013;DHT22;52783;50.502;8.190;2023-07-31T08:13:41;19.80;99.90
66013;DHT22;52783;50.502;8.190;2023-07-31T08:16:07;19.90;99.90
66013;DHT22;52783;50.502;8.190;2023-07-31T08:18:32;20.00;99.90
66013;DHT22;52783;50.502;8.190;2023-07-31T08:20:58;20.00;99.90
66013;DHT22;52783;50.502;8.190;2023-07-31T08:23:24;20.40;99.90
66013;DHT22;52783;50.502;8.190;2023-07-31T08:25:49;20.70;99.90
66013;DHT22;52783;50.502;8.190;2023-07-31T08:28:16;20.70;99.90
66013;DHT22;52783;50.502;8.190;2023-07-31T08:30:42;21.00;99.90
66013;DHT22;52783;50.502;8.190;2023-07-31T08:33:07;21.10;99.90
66013;DHT22;52783;50.502;8.190;2023-07-31T08:35:33;21.00;99.90
66013;DHT22;52783;50.502;8.190;2023-07-31T08:37:59;21.00;99.90
66013;DHT22;52783;50.502;8.190;2023-07-31T08:40:24;20.90;99.90
66013;DHT22;52783;50.502;8.190;2023-07-31T08:42:54;20.60;99.90
66013;DHT22;52783;50.502;8.190;2023-07-31T08:45:28;20.70;99.90
66013;DHT22;52783;50.502;8.190;2023-07-31T08:47:55;20.70;99.90
66013;DHT22;52783;50.502;8.190;2023-07-31T08:50:21;20.40;99.90
66013;DHT22;52783;50.502;8.190;2023-07-31T08:52:48;20.10;99.90
66013;DHT22;52783;50.502;8.190;2023-07-31T08:55:14;19.90;99.90
66013;DHT22;52783;50.502;8.190;2023-07-31T08:57:41;19.50;99.90
66013;DHT22;52783;50.502;8.190;2023-07-31T09:00:08;19.50;99.90
66013;DHT22;52783;50.502;8.190;2023-07-31T09:02:59;19.20;99.90
66013;DHT22;52783;50.502;8.190;2023-07-31T09:05:26;19.20;99.90
66013;DHT22;52783;50.502;8.190;2023-07-31T09:07:53;19.00;99.90
66013;DHT22;52783;50.502;8.190;2023-07-31T09:10:20;18.80;99.90
66013;DHT22;52783;50.502;8.190;2023-07-31T09:12:46;18.60;99.90
66013;DHT22;52783;50.502;8.190;2023-07-31T09:15:12;18.60;99.90
66013;DHT22;52783;50.502;8.190;2023-07-31T09:17:38;18.40;99.90
66013;DHT22;52783;50.502;8.190;2023-07-31T09:20:14;18.20;99.90
66013;DHT22;52783;50.502;8.190;2023-07-31T09:22:40;18.20;99.90
66013;DHT22;52783;50.502;8.190;2023-07-31T09:25:22;18.20;99.90
66013;DHT22;52783;50.502;8.190;2023-07-31T09:27:53;18.30;99.90
66013;DHT22;52783;50.502;8.190;2023-07-31T09:30:20;18.30;99.90
66013;DHT22;52783;50.502;8.190;2023-07-31T09:32:47;18.40;99.90
66013;DHT22;52783;50.502;8.190;2023-07-31T09:37:51;18.20;99.90
66013;DHT22;52783;50.502;8.190;2023-07-31T09:40:37;18.20;99.90
66013;DHT22;52783;50.502;8.190;2023-07-31T09:43:10;18.30;99.90
66013;DHT22;52783;50.502;8.190;2023-07-31T09:45:38;18.30;99.90
66013;DHT22;52783;50.502;8.190;2023-07-31T09:48:12;18.40;99.90
66013;DHT22;52783;50.502;8.190;2023-07-31T09:50:39;18.30;99.90
66013;DHT22;52783;50.502;8.190;2023-07-31T09:53:06;18.30;99.90
66013;DHT22;52783;50.502;8.190;2023-07-31T09:55:33;18.30;99.90
66013;DHT22;52783;50.502;8.190;2023-07-31T09:58:00;18.50;99.90
66013;DHT22;52783;50.502;8.190;2023-07-31T10:00:29;18.50;99.90
66013;DHT22;52783;50.502;8.190;2023-07-31T10:02:58;18.40;99.90
66013;DHT22;52783;50.502;8.190;2023-07-31T10:05:34;18.40;99.90
66013;DHT22;52783;50.502;8.190;2023-07-31T10:08:00;18.60;99.90
66013;DHT22;52783;50.502;8.190;2023-07-31T10:10:26;18.60;99.90
66013;DHT22;52783;50.502;8.190;2023-07-31T10:12:53;18.80;99.90
66013;DHT22;52783;50.502;8.190;2023-07-31T10:15:19;18.80;99.90
66013;DHT22;52783;50.502;8.190;2023-07-31T10:17:49;19.00;99.90
66013;DHT22;52783;50.502;8.190;2023-07-31T10:20:15;19.00;99.90
66013;DHT22;52783;50.502;8.190;2023-07-31T10:22:44;19.00;99.90
66013;DHT22;52783;50.502;8.190;2023-07-31T10:25:13;19.20;99.90
66013;DHT22;52783;50.502;8.190;2023-07-31T10:27:40;19.10;99.90
66013;DHT22;52783;50.502;8.190;2023-07-31T10:30:08;19.00;99.90
66013;DHT22;52783;50.502;8.190;2023-07-31T10:32:35;19.00;99.90
66013;DHT22;52783;50.502;8.190;2023-07-31T10:35:03;19.00;99.90
66013;DHT22;52783;50.502;8.190;2023-07-31T10:37:35;19.10;99.90
66013;DHT22;52783;50.502;8.190;2023-07-31T10:40:03;19.00;99.90
66013;DHT22;52783;50.502;8.190;2023-07-31T10:42:34;19.00;99.90
66013;DHT22;52783;50.502;8.190;2023-07-31T10:45:08;18.90;99.90
66013;DHT22;52783;50.502;8.190;2023-07-31T10:47:38;18.90;99.90
66013;DHT22;52783;50.502;8.190;2023-07-31T10:50:19;19.00;99.90
66013;DHT22;52783;50.502;8.190;2023-07-31T10:52:50;19.00;99.90
66013;DHT22;52783;50.502;8.190;2023-07-31T10:55:42;19.10;99.90
66013;DHT22;52783;50.502;8.190;2023-07-31T10:58:13;19.10;99.90
66013;DHT22;52783;50.502;8.190;2023-07-31T11:00:41;19.20;99.90
66013;DHT22;52783;50.502;8.190;2023-07-31T11:03:09;19.00;99.90
66013;DHT22;52783;50.502;8.190;2023-07-31T11:06:01;19.40;99.90
66013;DHT22;52783;50.502;8.190;2023-07-31T11:08:33;19.40;99.90
66013;DHT22;52783;50.502;8.190;2023-07-31T11:13:27;19.40;99.90
66013;DHT22;52783;50.502;8.190;2023-07-31T11:15:53;19.00;99.90
66013;DHT22;52783;50.502;8.190;2023-07-31T11:18:19;19.20;99.90
66013;DHT22;52783;50.502;8.190;2023-07-31T11:20:45;19.10;99.90
66013;DHT22;52783;50.502;8.190;2023-07-31T11:23:11;19.10;99.90
66013;DHT22;52783;50.502;8.190;2023-07-31T11:25:38;19.10;99.90
66013;DHT22;52783;50.502;8.190;2023-07-31T11:28:10;19.20;99.90
66013;DHT22;52783;50.502;8.190;2023-07-31T11:30:36;19.20;99.90
66013;DHT22;52783;50.502;8.190;2023-07-31T11:33:03;19.30;99.90
66013;DHT22;52783;50.502;8.190;2023-07-31T11:35:33;19.40;99.90
66013;DHT22;52783;50.502;8.190;2023-07-31T11:38:00;19.60;99.90
66013;DHT22;52783;50.502;8.190;2023-07-31T11:40:25;19.60;99.90
66013;DHT22;52783;50.502;8.190;2023-07-31T11:42:58;19.70;99.90
66013;DHT22;52783;50.502;8.190;2023-07-31T11:45:28;19.70;99.90
66013;DHT22;52783;50.502;8.190;2023-07-31T11:47:55;19.70;99.90
66013;DHT22;52783;50.502;8.190;2023-07-31T11:50:23;19.70;99.90
66013;DHT22;52783;50.502;8.190;2023-07-31T11:52:53;19.80;99.90
66013;DHT22;52783;50.502;8.190;2023-07-31T11:55:20;19.70;99.90
66013;DHT22;52783;50.502;8.190;2023-07-31T11:57:46;19.70;99.90
66013;DHT22;52783;50.502;8.190;2023-07-31T12:00:12;19.60;99.90
66013;DHT22;52783;50.502;8.190;2023-07-31T12:02:39;19.60;99.90
66013;DHT22;52783;50.502;8.190;2023-07-31T12:05:10;19.60;99.90
66013;DHT22;52783;50.502;8.190;2023-07-31T12:07:51;19.60;99.90
66013;DHT22;52783;50.502;8.190;2023-07-31T12:10:32;19.60;99.90
66013;DHT22;52783;50.502;8.190;2023-07-31T12:13:02;19.60;99.90
66013;DHT22;52783;50.502;8.190;2023-07-31T12:15:38;19.70;99.90
66013;DHT22;52783;50.502;8.190;2023-07-31T12:18:06;19.90;99.90
66013;DHT22;52783;50.502;8.190;2023-07-31T12:20:33;19.90;99.90
66013;DHT22;52783;50.502;8.190;2023-07-31T12:22:59;20.00;99.90
66013;DHT22;52783;50.502;8.190;2023-07-31T12:25:32;20.10;99.90
66013;DHT22;52783;50.502;8.190;2023-07-31T12:28:03;20.20;99.90
66013;DHT22;52783;50.502;8.190;2023-07-31T12:30:35;20.30;99.90
66013;DHT22;52783;50.502;8.190;2023-07-31T12:33:04;20.20;99.90
66013;DHT22;52783;50.502;8.190;2023-07-31T12:35:37;20.30;99.90
66013;DHT22;52783;50.502;8.190;2023-07-31T12:38:04;20.30;99.90
66013;DHT22;52783;50.502;8.190;2023-07-31T12:40:30;20.30;99.90
66013;DHT22;52783;50.502;8.190;2023-07-31T12:42:56;20.50;99.90
66013;DHT22;52783;50.502;8.190;2023-07-31T12:45:21;20.60;99.90
66013;DHT22;52783;50.502;8.190;2023-07-31T12:47:48;20.70;99.90
66013;DHT22;52783;50.502;8.190;2023-07-31T12:50:14;20.80;99.90
66013;DHT22;52783;50.502;8.190;2023-07-31T12:52:39;20.80;99.90
66013;DHT22;52783;50.502;8.190;2023-07-31T12:55:05;20.80;99.90
66013;DHT22;52783;50.502;8.190;2023-07-31T12:57:31;20.80;99.90
66013;DHT22;52783;50.502;8.190;2023-07-31T12:59:56;20.70;99.90
66013;DHT22;52783;50.502;8.190;2023-07-31T13:02:22;20.60;99.90
66013;DHT22;52783;50.502;8.190;2023-07-31T13:04:49;20.70;99.90
66013;DHT22;52783;50.502;8.190;2023-07-31T13:07:14;20.80;99.90
66013;DHT22;52783;50.502;8.190;2023-07-31T13:09:40;20.80;99.90
66013;DHT22;52783;50.502;8.190;2023-07-31T13:12:06;20.90;99.90
66013;DHT22;52783;50.502;8.190;2023-07-31T13:14:31;21.10;99.90
66013;DHT22;52783;50.502;8.190;2023-07-31T13:16:57;21.20;99.90
66013;DHT22;52783;50.502;8.190;2023-07-31T13:19:22;21.30;99.90
66013;DHT22;52783;50.502;8.190;2023-07-31T13:21:48;21.50;99.90
66013;DHT22;52783;50.502;8.190;2023-07-31T13:24:13;21.80;99.90
66013;DHT22;52783;50.502;8.190;2023-07-31T13:26:39;21.90;99.90
66013;DHT22;52783;50.502;8.190;2023-07-31T13:29:04;22.10;99.90
66013;DHT22;52783;50.502;8.190;2023-07-31T13:31:30;21.90;99.90
66013;DHT22;52783;50.502;8.190;2023-07-31T13:33:55;22.10;99.90
66013;DHT22;52783;50.502;8.190;2023-07-31T13:36:22;22.00;99.90
66013;DHT22;52783;50.502;8.190;2023-07-31T13:38:48;21.80;99.90
66013;DHT22;52783;50.502;8.190;2023-07-31T13:41:13;21.60;99.90
66013;DHT22;52783;50.502;8.190;2023-07-31T13:43:39;21.70;99.90
66013;DHT22;52783;50.502;8.190;2023-07-31T13:46:04;21.40;99.90
66013;DHT22;52783;50.502;8.190;2023-07-31T13:48:35;21.40;99.90
66013;DHT22;52783;50.502;8.190;2023-07-31T13:51:01;21.20;99.90
66013;DHT22;52783;50.502;8.190;2023-07-31T13:53:27;21.30;99.90
66013;DHT22;52783;50.502;8.190;2023-07-31T13:55:52;21.20;99.90
66013;DHT22;52783;50.502;8.190;2023-07-31T13:58:18;21.10;99.90
66013;DHT22;52783;50.502;8.190;2023-07-31T14:00:43;21.00;99.90
66013;DHT22;52783;50.502;8.190;2023-07-31T14:03:09;20.90;99.90
66013;DHT22;52783;50.502;8.190;2023-07-31T14:05:35;20.80;99.90
66013;DHT22;52783;50.502;8.190;2023-07-31T14:08:01;20.90;99.90
66013;DHT22;52783;50.502;8.190;2023-07-31T14:10:26;20.90;99.90
66013;DHT22;52783;50.502;8.190;2023-07-31T14:12:52;20.90;99.90
66013;DHT22;52783;50.502;8.190;2023-07-31T14:15:17;20.90;99.90
66013;DHT22;52783;50.502;8.190;2023-07-31T14:17:43;21.00;99.90
66013;DHT22;52783;50.502;8.190;2023-07-31T14:20:09;21.20;99.90
66013;DHT22;52783;50.502;8.190;2023-07-31T14:22:35;21.40;99.90
66013;DHT22;52783;50.502;8.190;2023-07-31T14:25:01;21.30;99.90
66013;DHT22;52783;50.502;8.190;2023-07-31T14:27:26;21.50;99.90
66013;DHT22;52783;50.502;8.190;2023-07-31T14:29:52;21.40;99.90
66013;DHT22;52783;50.502;8.190;2023-07-31T14:32:17;21.30;99.90
66013;DHT22;52783;50.502;8.190;2023-07-31T14:34:43;21.30;99.90
66013;DHT22;52783;50.502;8.190;2023-07-31T14:37:08;21.70;99.90
66013;DHT22;52783;50.502;8.190;2023-07-31T14:39:34;22.10;99.90
66013;DHT22;52783;50.502;8.190;2023-07-31T14:41:59;22.00;99.90
66013;DHT22;52783;50.502;8.190;2023-07-31T14:44:25;21.90;99.90
66013;DHT22;52783;50.502;8.190;2023-07-31T14:46:50;21.60;99.90
66013;DHT22;52783;50.502;8.190;2023-07-31T14:49:17;21.60;99.90
66013;DHT22;52783;50.502;8.190;2023-07-31T14:51:42;21.60;99.90
66013;DHT22;52783;50.502;8.190;2023-07-31T14:54:08;21.60;99.90
66013;DHT22;52783;50.502;8.190;2023-07-31T14:56:34;21.50;99.90
66013;DHT22;52783;50.502;8.190;2023-07-31T14:58:59;21.40;99.90
66013;DHT22;52783;50.502;8.190;2023-07-31T15:01:25;21.40;99.90
66013;DHT22;52783;50.502;8.190;2023-07-31T15:03:50;21.60;99.90
66013;DHT22;52783;50.502;8.190;2023-07-31T15:06:16;22.00;99.90
66013;DHT22;52783;50.502;8.190;2023-07-31T15:08:41;22.30;99.90
66013;DHT22;52783;50.502;8.190;2023-07-31T15:11:07;22.20;99.90
66013;DHT22;52783;50.502;8.190;2023-07-31T15:13:33;21.80;99.90
66013;DHT22;52783;50.502;8.190;2023-07-31T15:15:59;21.60;99.90
66013;DHT22;52783;50.502;8.190;2023-07-31T15:18:24;21.50;99.90
66013;DHT22;52783;50.502;8.190;2023-07-31T15:20:50;21.40;99.90
66013;DHT22;52783;50.502;8.190;2023-07-31T15:23:15;21.40;99.90
66013;DHT22;52783;50.502;8.190;2023-07-31T15:25:41;21.30;99.90
66013;DHT22;52783;50.502;8.190;2023-07-31T15:28:07;21.40;99.90
66013;DHT22;52783;50.502;8.190;2023-07-31T15:30:35;21.20;99.90
66013;DHT22;52783;50.502;8.190;2023-07-31T15:33:01;21.10;99.90
66013;DHT22;52783;50.502;8.190;2023-07-31T15:35:27;21.00;99.90
66013;DHT22;52783;50.502;8.190;2023-07-31T15:37:52;20.90;99.90
66013;DHT22;52783;50.502;8.190;2023-07-31T15:40:18;20.80;99.90